Time;durP1;ratioP1;P1;durP2;ratioP2;P2;SDS_P1;SDS_P2;PMS_P1;PMS_P2;Temp;Humidity;BMP_temperature;BMP_pressure;BME280_temperature;BME280_humidity;BME280_pressure;Samples;Min_cycle;Max_cycle;Signal;HPM_P1;HPM_P2
2021/12/10 00:01:17;;;;;;;9.40;7.03;;;;;;;4.53;61.04;92939.91;4958940;28;20295;-74
2021/12/10 00:03:53;;;;;;;12.10;6.20;;;;;;;4.63;60.53;92934.41;4959394;28;20091;-74
2021/12/10 00:06:24;;;;;;;16.58;7.38;;;;;;;4.49;60.96;92933.69;4944609;28;20118;-74
2021/12/10 00:08:52;;;;;;;15.77;7.78;;;;;;;4.50;61.14;92928.09;4961009;28;20034;-73
2021/12/10 00:11:24;;;;;;;10.73;7.25;;;;;;;4.50;61.15;92908.91;4960694;28;20117;-75
2021/12/10 00:13:50;;;;;;;14.63;7.38;;;;;;;4.59;61.05;92913.19;4966219;28;20015;-74
2021/12/10 00:16:18;;;;;;;9.18;6.80;;;;;;;4.66;60.79;92908.25;4961019;28;20409;-74
2021/12/10 00:18:50;;;;;;;12.98;6.30;;;;;;;4.70;60.46;92903.16;4965077;28;20717;-74
2021/12/10 00:21:16;;;;;;;7.63;5.57;;;;;;;4.76;60.25;92903.84;4962838;28;20051;-73
2021/12/10 00:23:46;;;;;;;9.80;5.75;;;;;;;4.87;60.03;92920.97;4963880;28;20057;-75
2021/12/10 00:26:11;;;;;;;8.13;5.22;;;;;;;4.86;60.09;92912.28;4964602;28;20057;-75
2021/12/10 00:28:39;;;;;;;10.15;5.57;;;;;;;4.94;59.92;92895.75;4962980;28;20050;-74
2021/12/10 00:31:19;;;;;;;9.60;5.22;;;;;;;5.01;59.80;92914.56;4959748;28;20591;-75
2021/12/10 00:34:04;;;;;;;10.95;5.55;;;;;;;5.04;59.68;92913.97;4965307;28;20042;-74
2021/12/10 00:36:30;;;;;;;11.65;6.60;;;;;;;5.09;59.58;92913.06;4944097;28;20050;-74
2021/12/10 00:38:56;;;;;;;11.68;6.68;;;;;;;4.99;59.30;92887.72;4944489;28;20066;-74
2021/12/10 00:41:24;;;;;;;10.63;6.68;;;;;;;5.02;59.24;92879.25;4965505;28;20090;-74
2021/12/10 00:43:49;;;;;;;17.27;8.13;;;;;;;5.07;59.16;92887.03;4963415;28;20045;-75
2021/12/10 00:46:16;;;;;;;13.60;6.55;;;;;;;5.29;59.09;92907.31;4957052;28;20034;-75
2021/12/10 00:48:42;;;;;;;11.93;7.00;;;;;;;5.21;58.81;92880.91;4960905;28;20058;-73
2021/12/10 00:51:10;;;;;;;11.00;6.13;;;;;;;5.25;59.21;92902.94;4960416;28;20139;-75
2021/12/10 00:53:36;;;;;;;9.77;6.25;;;;;;;5.14;59.42;92882.09;4958365;28;20039;-75
2021/12/10 00:56:04;;;;;;;9.65;6.03;;;;;;;5.08;59.47;92877.28;4965886;28;20339;-75
2021/12/10 00:58:31;;;;;;;14.50;6.10;;;;;;;5.23;59.46;92891.94;4940675;28;20155;-74
2021/12/10 01:01:01;;;;;;;7.93;4.97;;;;;;;5.36;59.42;92889.22;4962077;28;20405;-74
2021/12/10 01:03:31;;;;;;;6.07;3.85;;;;;;;4.88;59.31;92825.84;4961283;28;20083;-74
2021/12/10 01:06:01;;;;;;;10.13;4.65;;;;;;;5.06;59.67;92861.75;4960545;28;20330;-74
2021/12/10 01:08:27;;;;;;;7.47;5.20;;;;;;;5.16;60.31;92884.44;4960274;28;20137;-75
2021/12/10 01:11:00;;;;;;;11.15;5.18;;;;;;;5.21;59.88;92870.34;4960360;28;20477;-75
2021/12/10 01:13:33;;;;;;;9.30;4.03;;;;;;;5.20;59.67;92871.44;4965534;28;20028;-74
2021/12/10 01:27:27;;;;;;;7.93;4.82;;;;;;;5.39;60.24;92872.78;4963549;28;20102;-74
2021/12/10 01:29:56;;;;;;;6.43;3.97;;;;;;;5.45;60.13;92862.88;4963505;28;20469;-74
2021/12/10 01:32:27;;;;;;;6.55;3.30;;;;;;;5.50;60.21;92868.00;4964252;28;20082;-75
2021/12/10 01:34:56;;;;;;;4.57;3.75;;;;;;;5.33;60.59;92852.91;4964641;28;20612;-74
2021/12/10 01:37:25;;;;;;;5.45;3.38;;;;;;;5.42;60.47;92856.38;4949549;28;20505;-75
2021/12/10 01:39:52;;;;;;;5.57;4.18;;;;;;;5.50;60.21;92857.47;4962484;28;20520;-74
2021/12/10 01:42:34;;;;;;;5.95;3.75;;;;;;;5.54;60.28;92859.19;4963875;28;20042;-74
2021/12/10 01:45:07;;;;;;;6.40;3.80;;;;;;;4.92;61.06;92863.69;4963426;28;20066;-74
2021/12/10 01:47:36;;;;;;;8.05;4.32;;;;;;;4.94;62.66;92864.13;4960214;28;20074;-73
2021/12/10 01:50:07;;;;;;;7.53;4.82;;;;;;;5.06;61.53;92835.41;4963139;28;20030;-75
2021/12/10 01:52:33;;;;;;;5.28;3.17;;;;;;;5.20;60.72;92831.88;4943588;28;20046;-74
2021/12/10 01:55:00;;;;;;;7.97;4.05;;;;;;;5.41;60.14;92854.81;4965750;28;20507;-75
2021/12/10 01:57:30;;;;;;;7.53;3.92;;;;;;;5.41;60.33;92849.53;4942101;28;20260;-74
2021/12/10 01:59:56;;;;;;;7.05;3.90;;;;;;;5.41;60.45;92838.19;4961445;28;20540;-74
2021/12/10 02:02:25;;;;;;;7.53;4.35;;;;;;;5.50;60.68;92836.38;4961603;28;20027;-74
2021/12/10 02:04:51;;;;;;;4.57;3.33;;;;;;;5.49;60.70;92816.34;4960836;28;20034;-74
2021/12/10 02:07:21;;;;;;;8.25;4.07;;;;;;;5.57;60.56;92820.91;4961943;28;20039;-74
2021/12/10 02:09:48;;;;;;;6.70;3.92;;;;;;;5.55;60.83;92823.06;4959361;28;20620;-74
2021/12/10 02:12:15;;;;;;;6.55;3.55;;;;;;;5.34;60.47;92766.66;4964123;28;20364;-74
2021/12/10 02:14:41;;;;;;;7.32;4.05;;;;;;;5.78;60.51;92821.88;4961605;28;20356;-75
2021/12/10 02:17:07;;;;;;;7.03;4.28;;;;;;;5.81;60.23;92810.72;4963219;28;20035;-73
2021/12/10 02:19:32;;;;;;;7.88;4.18;;;;;;;5.71;60.21;92795.19;4956672;28;20034;-73
2021/12/10 02:21:59;;;;;;;5.63;4.10;;;;;;;5.85;59.80;92816.94;4963073;28;20066;-74
2021/12/10 02:24:25;;;;;;;6.28;4.45;;;;;;;5.36;59.73;92738.91;4959975;28;20047;-75
2021/12/10 02:26:56;;;;;;;7.68;3.63;;;;;;;5.84;59.37;92809.31;4961045;28;20386;-74
2021/12/10 02:29:24;;;;;;;6.60;3.60;;;;;;;5.84;59.19;92804.81;4958119;28;20030;-73
2021/12/10 02:31:51;;;;;;;9.25;4.28;;;;;;;5.78;59.10;92790.22;4947142;28;20041;-74
2021/12/10 02:34:16;;;;;;;5.20;3.50;;;;;;;5.83;58.88;92797.97;4955495;28;20030;-74
2021/12/10 02:36:42;;;;;;;6.57;3.15;;;;;;;5.73;59.02;92787.72;4959614;28;20038;-74
2021/12/10 02:39:11;;;;;;;4.28;2.92;;;;;;;5.90;58.96;92816.78;4961914;28;20059;-75
2021/12/10 02:41:39;;;;;;;6.38;3.40;;;;;;;5.71;58.68;92794.41;4961241;28;20544;-73
2021/12/10 02:44:07;;;;;;;4.55;3.72;;;;;;;5.90;59.13;92826.56;4954904;28;20693;-74
2021/12/10 02:46:32;;;;;;;4.82;3.70;;;;;;;5.91;59.03;92831.53;4963018;28;20121;-73
2021/12/10 02:48:58;;;;;;;5.63;3.30;;;;;;;5.94;58.09;92835.41;4963963;28;20669;-74
2021/12/10 02:51:24;;;;;;;7.70;3.40;;;;;;;5.91;57.89;92823.63;4961643;28;20250;-74
2021/12/10 02:53:50;;;;;;;6.95;4.43;;;;;;;5.76;58.26;92834.59;4947318;28;20043;-75
2021/12/10 02:56:18;;;;;;;8.75;5.55;;;;;;;5.75;58.70;92848.88;4952134;28;20442;-74
2021/12/10 02:58:47;;;;;;;5.78;3.75;;;;;;;5.63;59.41;92826.81;4963730;28;20027;-74
2021/12/10 03:01:36;;;;;;;3.97;3.20;;;;;;;5.57;59.44;92820.91;4959757;28;20130;-75
2021/12/10 03:04:03;;;;;;;4.90;3.13;;;;;;;5.55;59.98;92828.31;4961537;28;20087;-73
2021/12/10 03:06:30;;;;;;;7.53;3.55;;;;;;;5.64;59.16;92828.34;4952379;28;20050;-75
2021/12/10 03:08:57;;;;;;;10.23;4.00;;;;;;;5.30;60.29;92816.59;4961284;28;20623;-73
2021/12/10 03:11:31;;;;;;;7.20;4.50;;;;;;;4.89;61.57;92795.78;4940194;28;20116;-74
2021/12/10 03:13:58;;;;;;;7.63;4.72;;;;;;;4.69;62.82;92810.22;4962752;28;20027;-74
2021/12/10 03:16:24;;;;;;;8.07;4.30;;;;;;;4.63;63.46;92818.53;4959949;28;20042;-73
2021/12/10 03:18:50;;;;;;;5.75;3.58;;;;;;;4.66;64.24;92829.25;4957680;28;20031;-74
2021/12/10 03:21:16;;;;;;;10.82;4.38;;;;;;;4.59;64.70;92831.53;4959192;28;20348;-73
2021/12/10 03:23:46;;;;;;;4.50;3.20;;;;;;;4.60;64.26;92808.63;4957948;28;20047;-73
2021/12/10 03:26:16;;;;;;;7.15;3.67;;;;;;;4.59;64.69;92817.59;4956535;28;20146;-74
2021/12/10 03:28:42;;;;;;;6.28;3.90;;;;;;;4.43;65.40;92798.72;4941999;28;20030;-74
2021/12/10 03:31:10;;;;;;;4.90;3.47;;;;;;;4.57;64.83;92811.84;4961436;28;20498;-74
2021/12/10 03:33:36;;;;;;;4.72;3.08;;;;;;;4.62;64.03;92806.44;4963538;28;20041;-74
2021/12/10 03:36:03;;;;;;;7.25;3.38;;;;;;;4.80;63.68;92813.38;4965174;28;20043;-74
2021/12/10 03:38:29;;;;;;;3.50;2.40;;;;;;;4.96;63.54;92811.16;4958579;28;20079;-75
2021/12/10 03:40:55;;;;;;;4.22;1.95;;;;;;;5.09;63.27;92818.97;4959713;28;20505;-74
2021/12/10 03:43:22;;;;;;;3.22;1.92;;;;;;;5.23;63.10;92831.31;4962859;28;20117;-74
2021/12/10 03:45:52;;;;;;;2.70;1.80;;;;;;;5.20;62.31;92813.44;4957446;28;20093;-75
2021/12/10 03:48:24;;;;;;;3.33;2.10;;;;;;;5.33;62.69;92833.69;4961678;28;20101;-76
2021/12/10 03:50:50;;;;;;;4.47;2.17;;;;;;;5.40;62.33;92837.41;4959880;28;20038;-75
2021/12/10 03:53:17;;;;;;;1.63;1.42;;;;;;;5.46;62.20;92836.22;4960020;28;20109;-74
2021/12/10 03:55:44;;;;;;;3.50;1.50;;;;;;;5.46;62.32;92833.56;4955497;28;20053;-74
2021/12/10 03:58:09;;;;;;;3.17;2.00;;;;;;;5.46;61.94;92814.34;4942665;28;20022;-74
2021/12/10 04:00:40;;;;;;;3.50;2.03;;;;;;;5.53;61.91;92823.34;4958616;28;20039;-73
2021/12/10 04:03:06;;;;;;;3.10;1.85;;;;;;;5.61;62.07;92821.84;4956062;28;20830;-75
2021/12/10 04:05:32;;;;;;;2.40;1.80;;;;;;;5.76;62.28;92833.81;4942632;28;20090;-74
2021/12/10 04:07:58;;;;;;;2.00;1.83;;;;;;;5.88;61.16;92826.88;4959263;28;20037;-74
2021/12/10 04:10:25;;;;;;;4.57;2.53;;;;;;;5.40;60.79;92757.53;4958700;28;20094;-74
2021/12/10 04:12:51;;;;;;;4.38;2.55;;;;;;;5.40;62.12;92813.69;4940258;28;20049;-73
2021/12/10 04:15:20;;;;;;;4.68;2.25;;;;;;;5.58;62.74;92843.53;4955756;28;20484;-73
2021/12/10 04:17:48;;;;;;;4.10;2.92;;;;;;;5.60;62.45;92838.75;4957360;28;20143;-73
2021/12/10 04:20:23;;;;;;;3.67;2.97;;;;;;;5.62;62.08;92836.59;4959179;28;20026;-74
2021/12/10 04:22:49;;;;;;;5.88;3.00;;;;;;;5.62;61.07;92828.66;4957420;28;20447;-74
2021/12/10 04:25:20;;;;;;;5.00;3.35;;;;;;;5.79;61.05;92838.47;4954714;28;20050;-74
2021/12/10 04:27:47;;;;;;;6.55;3.67;;;;;;;5.72;61.98;92844.22;4955242;28;20047;-75
2021/12/10 04:30:16;;;;;;;6.93;3.72;;;;;;;5.80;62.07;92845.31;4956694;28;20136;-73
2021/12/10 04:32:43;;;;;;;5.53;3.25;;;;;;;5.47;65.00;92852.81;4958831;28;20038;-73
2021/12/10 04:35:11;;;;;;;3.67;2.70;;;;;;;5.78;62.60;92842.19;4947493;28;20034;-73
2021/12/10 04:37:36;;;;;;;4.20;2.38;;;;;;;5.82;62.54;92859.75;4956465;28;20741;-73
2021/12/10 04:40:05;;;;;;;3.22;2.25;;;;;;;5.87;62.01;92859.59;4955339;28;20058;-74
2021/12/10 04:42:31;;;;;;;2.85;2.00;;;;;;;5.79;61.62;92855.09;4939656;28;20105;-74
2021/12/10 04:44:58;;;;;;;4.05;1.92;;;;;;;5.91;61.34;92850.03;4952072;28;20522;-74
2021/12/10 04:47:25;;;;;;;2.83;1.63;;;;;;;6.02;60.26;92853.13;4960603;28;20031;-75
2021/12/10 04:49:51;;;;;;;2.03;1.65;;;;;;;6.04;59.79;92855.47;4962609;28;20528;-74
2021/12/10 04:52:17;;;;;;;6.25;2.30;;;;;;;5.84;60.76;92865.50;4960670;28;20042;-74
2021/12/10 04:54:43;;;;;;;1.67;1.58;;;;;;;5.67;61.11;92839.09;4942573;28;20446;-74
2021/12/10 04:57:08;;;;;;;3.00;1.98;;;;;;;5.62;61.48;92831.31;4963172;28;20167;-74
2021/12/10 04:59:35;;;;;;;4.53;3.33;;;;;;;5.87;61.11;92858.84;4944637;28;20355;-74
2021/12/10 05:02:05;;;;;;;4.72;3.50;;;;;;;5.94;61.62;92859.94;4964224;28;20407;-74
2021/12/10 05:04:31;;;;;;;4.63;3.05;;;;;;;6.05;61.81;92857.03;4960043;28;20091;-74
2021/12/10 05:06:58;;;;;;;7.45;2.78;;;;;;;6.02;61.46;92853.13;4957784;28;20453;-74
2021/12/10 05:09:25;;;;;;;4.72;3.20;;;;;;;5.89;62.22;92860.09;4947259;28;20042;-74
2021/12/10 05:11:52;;;;;;;3.30;2.25;;;;;;;5.90;62.48;92866.16;4959626;28;20121;-74
2021/12/10 05:14:18;;;;;;;5.15;3.05;;;;;;;5.82;62.78;92849.19;4957172;28;20058;-74
2021/12/10 05:16:46;;;;;;;4.35;3.08;;;;;;;5.76;62.77;92841.75;4956927;28;20296;-75
2021/12/10 05:19:14;;;;;;;5.15;2.95;;;;;;;5.84;63.00;92862.88;4959121;28;20557;-74
2021/12/10 05:21:41;;;;;;;6.18;3.70;;;;;;;5.87;62.64;92838.50;4958958;28;20122;-73
2021/12/10 05:24:08;;;;;;;5.93;3.60;;;;;;;5.61;62.40;92794.69;4959023;28;20065;-74
2021/12/10 05:26:36;;;;;;;9.57;4.65;;;;;;;5.92;61.89;92829.69;4960736;28;20540;-73
2021/12/10 05:29:04;;;;;;;7.07;4.57;;;;;;;6.09;61.98;92858.75;4963032;28;20433;-74
2021/12/10 05:31:29;;;;;;;6.13;4.05;;;;;;;6.09;61.74;92868.53;4960105;28;20057;-74
2021/12/10 05:33:55;;;;;;;5.30;3.10;;;;;;;6.18;61.42;92871.97;4946193;28;20030;-75
2021/12/10 05:36:20;;;;;;;6.63;3.00;;;;;;;6.18;60.90;92856.91;4946005;28;20449;-75
2021/12/10 05:38:46;;;;;;;2.45;2.25;;;;;;;6.21;60.69;92850.25;4954289;28;20039;-74
2021/12/10 05:41:12;;;;;;;5.25;3.05;;;;;;;6.13;60.46;92845.69;4964154;28;20057;-74
2021/12/10 05:43:39;;;;;;;4.50;3.35;;;;;;;6.17;60.46;92849.31;4957280;28;20030;-76
2021/12/10 05:46:05;;;;;;;5.95;4.47;;;;;;;6.22;60.13;92846.53;4960707;28;20693;-74
2021/12/10 05:48:31;;;;;;;7.18;4.60;;;;;;;6.24;60.04;92833.78;4965372;28;20400;-74
2021/12/10 05:50:57;;;;;;;6.95;4.78;;;;;;;6.28;60.05;92855.84;4958892;28;20110;-74
2021/12/10 05:53:24;;;;;;;10.05;5.43;;;;;;;6.12;60.67;92847.56;4962309;28;20042;-74
2021/12/10 05:55:50;;;;;;;9.57;6.82;;;;;;;5.24;66.68;92838.09;4960248;28;20090;-74
2021/12/10 05:58:17;;;;;;;8.88;5.18;;;;;;;5.54;64.51;92822.28;4962949;28;20065;-74
2021/12/10 06:00:47;;;;;;;11.95;6.03;;;;;;;4.52;68.91;92812.72;4964626;28;20030;-74
2021/12/10 06:03:14;;;;;;;15.15;7.65;;;;;;;4.53;70.97;92809.03;4960023;28;20399;-74
2021/12/10 06:05:41;;;;;;;14.02;9.25;;;;;;;4.68;70.55;92831.59;4960810;28;20035;-74
2021/12/10 06:08:07;;;;;;;14.30;8.93;;;;;;;5.23;68.30;92833.94;4962778;28;20591;-75
2021/12/10 06:10:34;;;;;;;14.13;9.65;;;;;;;5.34;66.90;92833.34;4956107;28;20050;-73
2021/12/10 06:12:59;;;;;;;15.55;8.85;;;;;;;4.79;69.73;92827.66;4961774;28;20045;-74
2021/12/10 06:15:26;;;;;;;15.52;9.02;;;;;;;4.89;70.52;92829.25;4952144;28;20042;-74
2021/12/10 06:17:52;;;;;;;14.07;8.48;;;;;;;5.44;67.05;92846.28;4964742;28;20035;-74
2021/12/10 06:20:22;;;;;;;15.02;9.15;;;;;;;5.58;66.38;92846.16;4941629;28;20585;-74
2021/12/10 06:22:47;;;;;;;15.50;9.60;;;;;;;5.69;66.35;92854.59;4960387;28;20181;-74
2021/12/10 06:25:13;;;;;;;15.23;10.20;;;;;;;5.67;65.59;92835.66;4945445;28;20498;-74
2021/12/10 06:27:44;;;;;;;11.52;9.40;;;;;;;5.83;64.76;92848.13;4960087;28;20047;-74
2021/12/10 06:30:20;;;;;;;11.77;8.85;;;;;;;5.77;63.97;92819.56;4956615;28;20611;-74
2021/12/10 06:32:52;;;;;;;15.75;8.88;;;;;;;5.95;63.60;92844.91;4961545;28;20042;-74
2021/12/10 06:35:20;;;;;;;27.02;14.07;;;;;;;5.46;66.83;92849.41;4958014;28;20062;-75
2021/12/10 06:37:46;;;;;;;31.08;15.05;;;;;;;5.77;65.44;92841.44;4956136;28;20050;-75
2021/12/10 06:40:15;;;;;;;24.98;13.15;;;;;;;6.00;64.11;92842.91;4955716;28;20078;-74
2021/12/10 06:42:40;;;;;;;21.50;10.98;;;;;;;6.00;63.37;92827.06;4960290;28;20210;-74
2021/12/10 06:45:09;;;;;;;19.20;11.15;;;;;;;5.98;63.03;92797.53;4959897;28;20150;-73
2021/12/10 06:47:35;;;;;;;18.05;8.80;;;;;;;6.15;63.01;92803.94;4947785;28;20043;-74
2021/12/10 06:50:01;;;;;;;10.70;7.45;;;;;;;6.28;63.38;92834.72;4964969;28;20494;-74
2021/12/10 06:52:27;;;;;;;13.63;7.78;;;;;;;6.23;64.52;92821.69;4962350;28;20082;-74
2021/12/10 06:54:52;;;;;;;8.60;6.00;;;;;;;5.62;68.00;92810.22;4961966;28;20083;-74
2021/12/10 06:57:18;;;;;;;7.40;5.15;;;;;;;5.97;65.92;92798.63;4962021;28;20043;-74
2021/12/10 06:59:44;;;;;;;9.35;6.60;;;;;;;6.18;65.76;92824.47;4958281;28;20054;-74
2021/12/10 07:02:11;;;;;;;11.35;5.55;;;;;;;5.94;67.34;92836.19;4960783;28;20030;-76
2021/12/10 07:04:40;;;;;;;11.68;6.72;;;;;;;5.23;70.76;92821.53;4954553;28;20687;-75
2021/12/10 07:07:08;;;;;;;26.85;14.35;;;;;;;5.08;70.09;92829.84;4958760;28;20038;-73
2021/12/10 07:09:34;;;;;;;21.88;13.68;;;;;;;5.54;68.58;92832.03;4958224;28;21085;-74
2021/12/10 07:11:59;;;;;;;22.52;11.95;;;;;;;5.91;65.79;92834.19;4962150;28;20035;-74
2021/12/10 07:14:25;;;;;;;21.85;10.73;;;;;;;6.04;65.45;92837.78;4958755;28;20065;-74
2021/12/10 07:16:50;;;;;;;19.92;8.88;;;;;;;6.06;65.29;92816.34;4959728;28;20035;-73
2021/12/10 07:19:16;;;;;;;12.43;6.70;;;;;;;6.37;63.87;92854.00;4958175;28;20039;-74
2021/12/10 07:21:44;;;;;;;10.88;6.03;;;;;;;6.21;65.34;92850.25;4959100;28;20043;-74
2021/12/10 07:24:13;;;;;;;9.02;5.57;;;;;;;6.22;65.66;92863.13;4962609;28;20053;-74
2021/12/10 07:26:39;;;;;;;10.60;6.18;;;;;;;6.21;65.65;92851.03;4960887;28;20617;-74
2021/12/10 07:29:06;;;;;;;11.45;6.78;;;;;;;6.44;64.79;92849.03;4960568;28;20145;-74
2021/12/10 07:31:33;;;;;;;6.05;4.38;;;;;;;6.50;64.20;92816.09;4963788;28;20039;-73
2021/12/10 07:34:00;;;;;;;10.75;5.40;;;;;;;6.43;64.88;92821.06;4961231;28;20125;-74
2021/12/10 07:36:26;;;;;;;10.77;6.05;;;;;;;6.54;65.16;92843.44;4954979;28;20134;-74
2021/12/10 07:38:52;;;;;;;11.40;5.60;;;;;;;6.48;64.83;92823.56;4958897;28;20110;-74
2021/12/10 07:41:18;;;;;;;13.88;7.50;;;;;;;6.46;64.69;92809.13;4961598;28;20031;-74
2021/12/10 07:43:43;;;;;;;12.30;6.72;;;;;;;6.73;64.71;92820.13;4954284;28;20042;-74
2021/12/10 07:46:09;;;;;;;10.07;6.65;;;;;;;6.75;64.46;92828.50;4956949;28;20150;-74
2021/12/10 07:48:36;;;;;;;6.32;5.40;;;;;;;6.74;64.27;92803.19;4941492;28;20070;-74
2021/12/10 07:51:15;;;;;;;8.68;5.05;;;;;;;6.50;67.51;92845.16;4958394;28;20386;-74
2021/12/10 07:53:41;;;;;;;9.15;5.35;;;;;;;6.88;65.25;92829.44;4956479;28;20061;-74
2021/12/10 07:56:10;;;;;;;9.18;5.22;;;;;;;7.00;64.93;92834.06;4946403;28;20026;-74
2021/12/10 07:58:40;;;;;;;6.10;4.93;;;;;;;6.86;64.40;92808.59;4940843;28;20125;-74
2021/12/10 08:01:09;;;;;;;6.35;4.60;;;;;;;6.81;64.91;92800.84;4956269;28;20047;-74
2021/12/10 08:03:35;;;;;;;7.80;5.03;;;;;;;7.02;64.30;92818.69;4957271;28;20141;-74
2021/12/10 08:06:00;;;;;;;6.55;5.20;;;;;;;6.80;65.26;92812.50;4961530;28;20536;-74
2021/12/10 08:08:26;;;;;;;8.77;5.13;;;;;;;6.78;65.54;92819.19;4956576;28;20102;-73
2021/12/10 08:10:53;;;;;;;11.32;7.32;;;;;;;7.04;64.56;92824.44;4948895;28;20426;-73
2021/12/10 08:13:22;;;;;;;9.13;5.95;;;;;;;7.17;64.69;92845.41;4936185;28;20514;-73
2021/12/10 08:15:49;;;;;;;11.98;6.53;;;;;;;7.22;64.37;92836.53;4945417;28;20725;-73
2021/12/10 08:18:14;;;;;;;10.88;6.50;;;;;;;7.15;63.90;92841.50;4958308;28;20053;-74
2021/12/10 08:20:40;;;;;;;8.73;5.93;;;;;;;7.30;64.03;92839.16;4951691;28;20042;-74
2021/12/10 08:23:06;;;;;;;11.35;6.50;;;;;;;7.33;64.01;92848.34;4953346;28;20035;-75
2021/12/10 08:25:32;;;;;;;10.10;5.82;;;;;;;7.46;64.12;92857.94;4955557;28;20125;-73
2021/12/10 08:27:58;;;;;;;14.18;8.90;;;;;;;7.55;63.86;92840.16;4948729;28;20034;-74
2021/12/10 08:30:27;;;;;;;14.90;7.80;;;;;;;7.70;62.70;92836.97;4950740;28;20074;-74
2021/12/10 08:32:55;;;;;;;11.85;8.75;;;;;;;7.59;63.37;92835.78;4955294;28;20042;-74
2021/12/10 08:35:24;;;;;;;9.90;5.47;;;;;;;7.46;63.18;92820.91;4952356;28;20018;-75
2021/12/10 08:37:52;;;;;;;6.93;4.65;;;;;;;7.60;62.78;92831.25;4960249;28;20390;-74
2021/12/10 08:40:28;;;;;;;8.07;4.97;;;;;;;7.69;62.28;92827.50;4951204;28;20043;-74
2021/12/10 08:42:53;;;;;;;8.00;5.10;;;;;;;7.70;62.10;92821.09;4935497;28;20705;-74
2021/12/10 08:45:22;;;;;;;21.45;13.85;;;;;;;7.07;65.63;92835.16;4957317;28;20047;-74
2021/12/10 08:47:49;;;;;;;31.33;18.83;;;;;;;6.70;67.22;92815.44;4956425;28;20049;-74
2021/12/10 08:50:22;;;;;;;29.50;18.17;;;;;;;6.78;65.58;92792.75;4957609;28;20035;-74
2021/12/10 08:52:49;;;;;;;27.33;19.38;;;;;;;6.92;65.86;92832.22;4956650;28;20047;-74
2021/12/10 08:55:17;;;;;;;36.45;20.27;;;;;;;6.90;66.81;92845.75;4955194;28;20438;-74
2021/12/10 08:57:43;;;;;;;30.23;18.98;;;;;;;6.91;66.14;92835.94;4959598;28;20054;-74
2021/12/10 09:00:10;;;;;;;40.88;22.92;;;;;;;7.22;64.25;92841.81;4953409;28;20027;-74
2021/12/10 09:02:37;;;;;;;37.75;22.67;;;;;;;6.29;67.23;92836.28;4953215;28;20501;-74
2021/12/10 09:05:05;;;;;;;40.22;22.50;;;;;;;6.27;67.52;92822.59;4953804;28;20022;-74
2021/12/10 09:07:31;;;;;;;39.88;24.17;;;;;;;6.35;67.78;92850.91;4952538;28;20039;-73
2021/12/10 09:09:56;;;;;;;40.55;23.08;;;;;;;6.28;67.98;92835.50;4951821;28;20046;-74
2021/12/10 09:12:25;;;;;;;44.42;26.02;;;;;;;6.02;69.58;92843.34;4955166;28;20039;-74
2021/12/10 09:14:53;;;;;;;43.60;25.00;;;;;;;6.13;68.74;92838.56;4952637;28;20049;-74
2021/12/10 09:17:23;;;;;;;58.45;31.73;;;;;;;5.43;71.67;92828.88;4959972;28;20517;-73
2021/12/10 09:19:54;;;;;;;91.50;49.22;;;;;;;5.65;70.84;92827.28;4955041;28;20039;-73
2021/12/10 09:22:20;;;;;;;79.10;45.90;;;;;;;5.24;71.85;92803.84;4955511;28;20045;-73
2021/12/10 09:24:47;;;;;;;88.28;45.13;;;;;;;5.39;71.20;92814.75;4959011;28;20510;-73
2021/12/10 09:27:14;;;;;;;100.90;51.63;;;;;;;5.58;70.08;92807.38;4948010;28;20093;-74
2021/12/10 09:29:44;;;;;;;88.32;44.35;;;;;;;5.84;69.30;92838.34;4960961;28;20402;-73
2021/12/10 09:32:13;;;;;;;79.55;43.75;;;;;;;5.85;69.57;92824.84;4949339;28;20501;-73
2021/12/10 09:34:39;;;;;;;85.68;44.08;;;;;;;5.86;68.31;92826.41;4960474;28;20511;-74
2021/12/10 09:37:05;;;;;;;82.07;44.65;;;;;;;5.80;68.44;92798.59;4962581;28;20050;-73
2021/12/10 09:39:32;;;;;;;94.53;46.60;;;;;;;5.70;68.61;92761.97;4955966;28;20047;-73
2021/12/10 09:41:58;;;;;;;91.30;45.72;;;;;;;5.63;69.19;92766.16;4955568;28;20043;-74
2021/12/10 09:44:24;;;;;;;87.65;42.85;;;;;;;5.78;69.46;92800.75;4957141;28;20062;-73
2021/12/10 09:46:53;;;;;;;87.80;41.15;;;;;;;5.88;69.79;92803.13;4959529;28;20174;-73
2021/12/10 09:49:23;;;;;;;74.35;38.65;;;;;;;6.02;69.78;92804.88;4964123;28;20117;-74
2021/12/10 09:51:55;;;;;;;57.20;29.85;;;;;;;6.02;69.94;92806.41;4952833;28;20031;-74
2021/12/10 09:54:22;;;;;;;52.47;26.20;;;;;;;5.89;69.58;92778.28;4935353;28;20619;-74
2021/12/10 09:57:00;;;;;;;37.83;20.52;;;;;;;5.92;68.78;92753.91;4954500;28;20038;-74
2021/12/10 09:59:26;;;;;;;31.90;16.67;;;;;;;6.28;67.94;92781.91;4958191;28;20069;-73
2021/12/10 10:01:54;;;;;;;30.48;15.80;;;;;;;6.12;67.69;92762.31;4953552;28;20105;-73
2021/12/10 10:04:23;;;;;;;28.83;16.23;;;;;;;6.11;68.68;92771.34;4953059;28;20039;-74
2021/12/10 10:06:58;;;;;;;23.13;14.30;;;;;;;6.22;69.01;92751.47;4960259;28;20843;-74
2021/12/10 10:09:26;;;;;;;23.23;11.82;;;;;;;6.34;68.63;92760.34;4956578;28;20038;-74
2021/12/10 10:11:57;;;;;;;22.15;11.90;;;;;;;6.33;68.73;92726.31;4959040;28;20089;-74
2021/12/10 10:14:24;;;;;;;58.78;29.33;;;;;;;5.66;71.90;92752.34;4938573;28;20481;-74
2021/12/10 10:16:50;;;;;;;72.88;32.92;;;;;;;5.92;71.29;92746.00;4953401;28;20493;-74
2021/12/10 10:19:17;;;;;;;72.90;33.47;;;;;;;6.24;70.51;92767.78;4960754;28;20531;-74
2021/12/10 10:21:49;;;;;;;70.47;33.88;;;;;;;6.31;70.21;92749.63;4934562;28;20458;-73
2021/12/10 10:24:15;;;;;;;56.65;32.08;;;;;;;6.51;68.02;92738.41;4958160;28;20043;-74
2021/12/10 10:26:46;;;;;;;60.25;30.65;;;;;;;6.58;67.88;92749.28;4958102;28;20062;-74
2021/12/10 10:29:17;;;;;;;57.55;29.30;;;;;;;6.33;69.11;92742.94;4937316;28;20065;-73
2021/12/10 10:31:50;;;;;;;51.75;27.95;;;;;;;6.50;68.45;92736.88;4958972;28;20045;-74
2021/12/10 10:34:16;;;;;;;37.75;20.60;;;;;;;5.93;70.40;92741.50;4958819;28;20042;-74
2021/12/10 10:36:42;;;;;;;37.92;19.70;;;;;;;6.49;69.16;92735.31;4958378;28;20049;-74
2021/12/10 10:39:21;;;;;;;38.00;18.77;;;;;;;6.67;68.46;92723.63;4957127;28;20038;-73
2021/12/10 10:41:52;;;;;;;40.05;19.67;;;;;;;6.88;67.30;92736.16;4956116;28;20532;-74
2021/12/10 10:44:18;;;;;;;50.22;28.20;;;;;;;6.61;67.94;92722.22;4957011;28;20027;-73
2021/12/10 10:46:46;;;;;;;51.95;28.25;;;;;;;6.95;66.33;92736.44;4958901;28;20030;-74
2021/12/10 10:49:38;;;;;;;39.55;22.30;;;;;;;6.96;66.48;92736.13;4961964;28;20045;-74
2021/12/10 10:52:21;;;;;;;39.80;23.00;;;;;;;6.40;68.43;92732.69;4954223;28;20037;-74
2021/12/10 10:54:49;;;;;;;39.50;20.67;;;;;;;6.70;66.79;92709.75;4958325;28;20161;-73
2021/12/10 10:57:29;;;;;;;32.65;19.05;;;;;;;7.05;65.52;92726.28;4954895;28;20540;-73
2021/12/10 11:00:01;;;;;;;31.08;16.88;;;;;;;7.17;64.94;92723.00;4948238;28;20050;-75
2021/12/10 11:02:39;;;;;;;35.45;20.77;;;;;;;6.99;64.96;92703.78;4957080;28;20027;-74
2021/12/10 11:05:10;;;;;;;43.63;21.98;;;;;;;6.91;66.25;92719.66;4954362;28;20031;-74
2021/12/10 11:07:49;;;;;;;39.42;21.73;;;;;;;7.10;65.42;92710.25;4935842;28;20035;-74
2021/12/10 11:10:24;;;;;;;39.25;21.52;;;;;;;6.97;65.94;92716.53;4955100;28;20043;-74
2021/12/10 11:12:50;;;;;;;50.05;22.55;;;;;;;6.77;67.47;92709.28;4935922;28;20461;-74
2021/12/10 11:15:17;;;;;;;48.20;23.88;;;;;;;7.12;66.56;92728.47;4948577;28;20038;-74
2021/12/10 11:17:56;;;;;;;48.42;25.38;;;;;;;7.23;66.12;92719.09;4951253;28;20129;-74
2021/12/10 11:20:26;;;;;;;56.00;29.15;;;;;;;7.22;66.03;92722.81;4932623;28;20037;-73
2021/12/10 11:22:58;;;;;;;52.22;26.83;;;;;;;7.23;65.42;92711.16;4947726;28;20141;-74
2021/12/10 11:25:28;;;;;;;42.55;22.33;;;;;;;7.01;66.44;92722.75;4932150;28;20560;-74
2021/12/10 11:28:17;;;;;;;38.22;18.35;;;;;;;7.21;65.76;92719.41;4932606;28;20327;-74
2021/12/10 11:30:48;;;;;;;31.52;16.92;;;;;;;6.99;67.03;92706.44;4948730;28;20057;-74
2021/12/10 11:33:17;;;;;;;32.42;17.77;;;;;;;6.51;69.32;92684.78;4950618;28;20773;-74
2021/12/10 11:35:56;;;;;;;37.60;21.02;;;;;;;7.00;67.98;92707.97;4944754;28;20058;-74
2021/12/10 11:38:28;;;;;;;35.00;18.98;;;;;;;7.18;66.94;92677.75;4948356;28;20450;-74
2021/12/10 11:41:22;;;;;;;34.45;18.65;;;;;;;7.44;66.37;92700.59;4948947;28;20430;-74
2021/12/10 11:48:50;;;;;;;29.85;17.40;;;;;;;7.75;64.73;92702.94;4955210;28;20117;-74
2021/12/10 11:51:16;;;;;;;29.92;16.13;;;;;;;7.17;66.85;92691.28;4943420;28;20129;-73
2021/12/10 11:53:59;;;;;;;24.30;15.25;;;;;;;7.45;65.84;92681.78;4948166;28;20046;-74
2021/12/10 11:56:37;;;;;;;30.42;14.75;;;;;;;7.35;67.24;92697.22;4951679;28;20030;-74